Time,TemperatureF,DewpointF,PressureIn,WindDirection,WindDirectionDegrees,WindSpeedMPH,WindSpeedGustMPH,Humidity,HourlyPrecipIn,Conditions,Clouds,dailyrainin,SoftwareType,DateUTC
2013-08-01 00:00:00,59.2,55.9,30.09,WNW,286,0.0,1.0,89,0.00,,,0.00,meteohub,2013-08-01 04:00:00,
2013-08-01 00:01:00,59.2,55.9,30.09,WNW,286,0.0,1.0,89,0.00,,,0.00,meteohub,2013-08-01 04:01:00,
2013-08-01 00:02:00,59.0,55.8,30.09,WNW,286,0.0,1.0,89,0.00,,,0.00,meteohub,2013-08-01 04:02:00,
2013-08-01 00:07:00,59.0,55.8,30.09,WNW,286,0.0,1.0,89,0.00,,,0.00,meteohub,2013-08-01 04:07:00,
2013-08-01 00:12:00,58.8,55.2,30.09,WNW,286,0.0,1.0,88,0.00,,,0.00,meteohub,2013-08-01 04:12:00,
2013-08-01 00:17:00,58.6,55.0,30.09,WNW,286,0.0,1.0,88,0.00,,,0.00,meteohub,2013-08-01 04:17:00,
2013-08-01 00:22:00,58.8,55.2,30.09,WNW,286,0.0,1.0,88,0.00,,,0.00,meteohub,2013-08-01 04:22:00,
2013-08-01 00:27:00,58.8,55.2,30.09,WNW,286,0.0,1.0,88,0.00,,,0.00,meteohub,2013-08-01 04:27:00,
2013-08-01 00:32:00,59.0,55.4,30.09,WNW,286,1.0,1.0,88,0.00,,,0.00,meteohub,2013-08-01 04:32:00,
2013-08-01 00:37:00,58.8,55.2,30.09,WNW,286,0.0,2.0,88,0.00,,,0.00,meteohub,2013-08-01 04:37:00,
2013-08-01 00:42:00,58.6,55.0,30.09,WNW,286,0.0,2.0,88,0.00,,,0.00,meteohub,2013-08-01 04:42:00,
2013-08-01 00:47:00,58.3,55.0,30.09,WNW,286,0.0,2.0,89,0.00,,,0.00,meteohub,2013-08-01 04:47:00,
2013-08-01 00:52:00,57.9,55.0,30.09,WNW,286,0.0,1.0,90,0.00,,,0.00,meteohub,2013-08-01 04:52:00,
2013-08-01 00:57:00,57.9,55.0,30.09,WNW,286,0.0,1.0,90,0.00,,,0.00,meteohub,2013-08-01 04:57:00,
2013-08-01 01:02:00,58.3,55.0,30.09,WNW,286,1.0,1.0,89,0.00,,,0.00,meteohub,2013-08-01 05:02:00,
2013-08-01 01:07:00,58.8,55.2,30.09,WNW,286,0.0,1.0,88,0.00,,,0.00,meteohub,2013-08-01 05:07:00,
2013-08-01 01:12:00,59.0,55.4,30.09,WNW,286,0.0,1.0,88,0.00,,,0.00,meteohub,2013-08-01 05:12:00,
2013-08-01 01:17:00,59.2,55.6,30.08,WNW,286,0.0,1.0,88,0.00,,,0.00,meteohub,2013-08-01 05:17:00,
2013-08-01 01:22:00,59.4,55.4,30.08,WNW,286,0.0,1.0,87,0.00,,,0.00,meteohub,2013-08-01 05:22:00,
2013-08-01 01:27:00,59.5,55.0,30.08,WNW,286,0.0,1.0,85,0.00,,,0.00,meteohub,2013-08-01 05:27:00,
2013-08-01 01:32:00,59.9,55.4,30.08,WNW,286,0.0,1.0,85,0.00,,,0.00,meteohub,2013-08-01 05:32:00,
2013-08-01 01:37:00,60.1,55.9,30.08,WNW,286,1.0,1.0,86,0.00,,,0.00,meteohub,2013-08-01 05:37:00,
2013-08-01 01:42:00,59.5,55.4,30.07,WNW,286,0.0,1.0,86,0.00,,,0.00,meteohub,2013-08-01 05:42:00,
2013-08-01 01:47:00,59.4,55.4,30.07,WNW,286,1.0,2.0,87,0.00,,,0.00,meteohub,2013-08-01 05:47:00,
2013-08-01 01:52:00,59.0,55.2,30.07,WNW,286,0.0,2.0,87,0.00,,,0.00,meteohub,2013-08-01 05:52:00,
2013-08-01 01:57:00,58.6,55.0,30.07,WNW,286,0.0,2.0,88,0.00,,,0.00,meteohub,2013-08-01 05:57:00,
2013-08-01 02:02:00,58.6,55.4,30.07,WNW,286,1.0,1.0,89,0.00,,,0.00,meteohub,2013-08-01 06:02:00,
2013-08-01 02:07:00,58.5,54.9,30.07,WNW,286,1.0,2.0,88,0.00,,,0.00,meteohub,2013-08-01 06:07:00,
2013-08-01 02:12:00,58.6,55.4,30.06,WNW,286,1.0,2.0,89,0.00,,,0.00,meteohub,2013-08-01 06:12:00,
2013-08-01 02:17:00,58.8,55.6,30.06,WNW,286,1.0,2.0,89,0.00,,,0.00,meteohub,2013-08-01 06:17:00,
2013-08-01 02:22:00,58.8,55.2,30.06,WNW,286,1.0,2.0,88,0.00,,,0.00,meteohub,2013-08-01 06:22:00,
2013-08-01 02:27:00,59.4,55.8,30.06,WNW,286,0.0,2.0,88,0.00,,,0.00,meteohub,2013-08-01 06:27:00,
2013-08-01 02:33:00,59.4,55.8,30.06,WNW,286,0.0,2.0,88,0.00,,,0.00,meteohub,2013-08-01 06:33:00,
2013-08-01 02:38:00,59.5,55.6,30.06,WNW,286,1.0,2.0,87,0.00,,,0.00,meteohub,2013-08-01 06:38:00,
2013-08-01 02:43:00,59.7,55.8,30.06,WNW,286,0.0,2.0,87,0.00,,,0.00,meteohub,2013-08-01 06:43:00,
2013-08-01 02:48:00,60.1,56.1,30.06,WNW,286,1.0,2.0,87,0.00,,,0.00,meteohub,2013-08-01 06:48:00,
2013-08-01 02:52:00,60.1,56.1,30.06,WNW,286,0.0,2.0,87,0.00,,,0.00,meteohub,2013-08-01 06:52:00,
2013-08-01 02:58:00,60.1,56.1,30.05,WNW,286,1.0,2.0,87,0.00,,,0.00,meteohub,2013-08-01 06:58:00,
2013-08-01 03:03:00,59.7,55.8,30.05,WNW,286,0.0,2.0,87,0.00,,,0.00,meteohub,2013-08-01 07:03:00,
2013-08-01 03:08:00,59.4,55.8,30.05,WNW,286,0.0,2.0,88,0.00,,,0.00,meteohub,2013-08-01 07:08:00,
2013-08-01 03:13:00,59.2,55.6,30.05,WNW,286,0.0,2.0,88,0.00,,,0.00,meteohub,2013-08-01 07:13:00,
2013-08-01 03:18:00,59.4,55.8,30.05,WNW,286,0.0,1.0,88,0.00,,,0.00,meteohub,2013-08-01 07:18:00,
2013-08-01 03:23:00,59.5,55.9,30.05,WNW,286,0.0,1.0,88,0.00,,,0.00,meteohub,2013-08-01 07:23:00,
2013-08-01 03:28:00,59.4,55.8,30.04,WNW,286,0.0,1.0,88,0.00,,,0.00,meteohub,2013-08-01 07:28:00,
2013-08-01 03:33:00,59.4,55.4,30.04,WNW,286,0.0,1.0,87,0.00,,,0.00,meteohub,2013-08-01 07:33:00,
2013-08-01 03:38:00,59.5,55.9,30.04,WNW,286,0.0,1.0,88,0.00,,,0.00,meteohub,2013-08-01 07:38:00,
2013-08-01 03:43:00,59.5,55.9,30.04,WNW,286,0.0,1.0,88,0.00,,,0.00,meteohub,2013-08-01 07:43:00,
2013-08-01 03:48:00,59.7,56.1,30.04,WNW,286,0.0,1.0,88,0.00,,,0.00,meteohub,2013-08-01 07:48:00,
2013-08-01 03:54:00,59.7,56.1,30.04,WNW,286,1.0,1.0,88,0.00,,,0.00,meteohub,2013-08-01 07:54:00,
2013-08-01 03:59:00,59.5,55.9,30.04,WNW,286,0.0,2.0,88,0.00,,,0.00,meteohub,2013-08-01 07:59:00,
2013-08-01 04:04:00,59.5,56.3,30.03,WNW,286,0.0,2.0,89,0.00,,,0.00,meteohub,2013-08-01 08:04:00,
2013-08-01 04:09:00,59.4,56.1,30.03,WNW,286,0.0,2.0,89,0.00,,,0.00,meteohub,2013-08-01 08:09:00,
2013-08-01 04:14:00,59.5,56.3,30.03,WNW,286,0.0,1.0,89,0.00,,,0.00,meteohub,2013-08-01 08:14:00,
2013-08-01 04:19:00,59.4,56.5,30.03,WNW,286,0.0,1.0,90,0.00,,,0.00,meteohub,2013-08-01 08:19:00,
2013-08-01 04:24:00,59.4,56.5,30.03,WNW,286,1.0,2.0,90,0.00,,,0.00,meteohub,2013-08-01 08:24:00,
2013-08-01 04:29:00,59.4,56.5,30.03,WNW,286,1.0,2.0,90,0.00,,,0.00,meteohub,2013-08-01 08:29:00,
2013-08-01 04:35:00,59.4,56.5,30.03,WNW,286,0.0,2.0,90,0.00,,,0.00,meteohub,2013-08-01 08:35:00,
2013-08-01 04:41:00,59.5,56.7,30.03,WNW,286,2.0,2.0,90,0.00,,,0.00,meteohub,2013-08-01 08:41:00,
2013-08-01 04:47:00,59.7,56.5,30.02,WNW,286,1.0,2.0,89,0.00,,,0.00,meteohub,2013-08-01 08:47:00,
2013-08-01 04:52:00,60.1,56.8,30.02,WNW,286,0.0,2.0,89,0.00,,,0.00,meteohub,2013-08-01 08:52:00,
2013-08-01 04:57:00,60.1,56.8,30.02,WNW,288,2.0,2.0,89,0.00,,,0.00,meteohub,2013-08-01 08:57:00,
2013-08-01 05:02:00,60.1,57.2,30.02,WNW,288,1.0,2.0,90,0.00,,,0.00,meteohub,2013-08-01 09:02:00,
2013-08-01 05:07:00,60.1,56.8,30.02,WNW,288,0.0,2.0,89,0.00,,,0.00,meteohub,2013-08-01 09:07:00,
2013-08-01 05:13:00,59.7,56.8,30.02,WNW,288,0.0,2.0,90,0.00,,,0.00,meteohub,2013-08-01 09:13:00,
2013-08-01 05:19:00,59.7,56.8,30.02,WNW,288,0.0,1.0,90,0.00,,,0.00,meteohub,2013-08-01 09:19:00,
2013-08-01 05:24:00,59.5,56.8,30.02,WNW,288,0.0,1.0,91,0.00,,,0.00,meteohub,2013-08-01 09:24:00,
2013-08-01 05:31:00,59.7,57.0,30.02,WNW,288,0.0,1.0,91,0.00,,,0.00,meteohub,2013-08-01 09:31:00,
2013-08-01 05:37:00,60.1,57.4,30.02,WNW,288,0.0,1.0,91,0.00,,,0.00,meteohub,2013-08-01 09:37:00,
2013-08-01 05:42:00,60.3,57.4,30.02,WNW,288,0.0,1.0,90,0.00,,,0.00,meteohub,2013-08-01 09:42:00,
2013-08-01 05:47:00,60.4,57.6,30.02,WNW,288,0.0,1.0,90,0.00,,,0.00,meteohub,2013-08-01 09:47:00,
2013-08-01 05:52:00,60.3,57.4,30.02,WNW,288,1.0,1.0,90,0.00,,,0.00,meteohub,2013-08-01 09:52:00,
2013-08-01 05:57:00,60.1,57.4,30.02,ENE,57,1.0,2.0,91,0.00,,,0.00,meteohub,2013-08-01 09:57:00,
2013-08-01 06:02:00,60.4,57.6,30.02,ENE,57,0.0,2.0,90,0.00,,,0.00,meteohub,2013-08-01 10:02:00,
2013-08-01 06:07:00,60.4,57.6,30.02,ENE,57,1.0,2.0,90,0.00,,,0.00,meteohub,2013-08-01 10:07:00,
2013-08-01 06:12:00,60.3,57.4,30.02,ENE,57,1.0,2.0,90,0.00,,,0.00,meteohub,2013-08-01 10:12:00,
2013-08-01 06:17:00,60.1,57.4,30.02,ENE,57,0.0,2.0,91,0.00,,,0.00,meteohub,2013-08-01 10:17:00,
2013-08-01 06:22:00,60.1,57.4,30.02,ENE,62,0.0,2.0,91,0.00,,,0.00,meteohub,2013-08-01 10:22:00,
2013-08-01 06:27:00,60.1,57.4,30.02,ENE,62,0.0,2.0,91,0.00,,,0.00,meteohub,2013-08-01 10:27:00,
2013-08-01 06:32:00,60.3,57.6,30.03,ENE,62,0.0,2.0,91,0.00,,,0.00,meteohub,2013-08-01 10:32:00,
2013-08-01 06:37:00,60.6,57.9,30.02,ENE,62,0.0,2.0,91,0.00,,,0.00,meteohub,2013-08-01 10:37:00,
2013-08-01 06:44:00,60.8,57.9,30.02,ENE,62,0.0,2.0,90,0.00,,,0.00,meteohub,2013-08-01 10:44:00,
2013-08-01 06:49:00,61.3,58.1,30.02,ENE,62,0.0,2.0,89,0.00,,,0.00,meteohub,2013-08-01 10:49:00,
2013-08-01 06:54:00,61.9,59.0,30.02,ENE,62,0.0,2.0,90,0.00,,,0.00,meteohub,2013-08-01 10:54:00,
2013-08-01 07:01:00,62.2,59.2,30.02,ENE,62,0.0,2.0,90,0.00,,,0.00,meteohub,2013-08-01 11:01:00,
2013-08-01 07:07:00,62.2,59.0,30.02,ENE,62,0.0,2.0,89,0.00,,,0.00,meteohub,2013-08-01 11:07:00,
2013-08-01 07:12:00,62.6,59.5,30.02,ENE,62,0.0,1.0,90,0.00,,,0.00,meteohub,2013-08-01 11:12:00,
2013-08-01 07:17:00,62.8,59.5,30.02,ENE,62,0.0,1.0,89,0.00,,,0.00,meteohub,2013-08-01 11:17:00,
2013-08-01 07:22:00,63.0,59.7,30.02,ENE,62,0.0,1.0,89,0.00,,,0.00,meteohub,2013-08-01 11:22:00,
2013-08-01 07:27:00,63.0,59.7,30.02,ENE,62,0.0,1.0,89,0.00,,,0.00,meteohub,2013-08-01 11:27:00,
2013-08-01 07:32:00,63.1,59.9,30.02,ENE,62,0.0,1.0,89,0.00,,,0.00,meteohub,2013-08-01 11:32:00,
2013-08-01 07:38:00,63.9,60.8,30.02,ENE,62,0.0,1.0,90,0.00,,,0.00,meteohub,2013-08-01 11:38:00,
2013-08-01 07:43:00,64.9,61.3,30.02,ENE,62,0.0,1.0,88,0.00,,,0.00,meteohub,2013-08-01 11:43:00,
2013-08-01 07:48:00,66.0,61.0,30.02,ENE,62,0.0,1.0,84,0.00,,,0.00,meteohub,2013-08-01 11:48:00,
2013-08-01 07:53:00,66.7,61.7,30.02,ENE,75,1.0,2.0,84,0.00,,,0.00,meteohub,2013-08-01 11:53:00,
2013-08-01 07:58:00,67.1,61.3,30.01,East,80,1.0,2.0,82,0.00,,,0.00,meteohub,2013-08-01 11:58:00,
2013-08-01 08:04:00,67.5,61.3,30.01,East,95,0.0,3.0,81,0.00,,,0.00,meteohub,2013-08-01 12:04:00,
2013-08-01 08:09:00,68.0,62.2,30.01,East,95,0.0,3.0,82,0.00,,,0.00,meteohub,2013-08-01 12:09:00,
2013-08-01 08:14:00,68.5,61.7,30.01,East,97,0.0,3.0,79,0.00,,,0.00,meteohub,2013-08-01 12:14:00,
2013-08-01 08:20:00,68.5,61.7,30.01,ESE,105,3.0,3.0,79,0.00,,,0.00,meteohub,2013-08-01 12:20:00,
2013-08-01 08:25:00,68.5,61.3,30.01,SE,128,1.0,3.0,78,0.00,,,0.00,meteohub,2013-08-01 12:25:00,
2013-08-01 08:30:00,68.5,61.7,30.01,ESE,120,2.0,4.0,79,0.00,,,0.00,meteohub,2013-08-01 12:30:00,
2013-08-01 08:35:00,68.5,61.7,30.01,SSE,165,0.0,4.0,79,0.00,,,0.00,meteohub,2013-08-01 12:35:00,
2013-08-01 08:41:00,68.5,62.1,30.01,SSE,165,1.0,4.0,80,0.00,,,0.00,meteohub,2013-08-01 12:41:00,
2013-08-01 08:47:00,68.9,62.4,30.00,SSE,165,0.0,3.0,80,0.00,,,0.00,meteohub,2013-08-01 12:47:00,
2013-08-01 08:52:00,69.4,63.0,30.00,SE,126,1.0,3.0,80,0.00,,,0.00,meteohub,2013-08-01 12:52:00,
2013-08-01 08:57:00,70.0,63.5,30.00,SE,126,0.0,3.0,80,0.00,,,0.00,meteohub,2013-08-01 12:57:00,
2013-08-01 09:02:00,70.2,62.6,29.99,SE,142,3.0,3.0,77,0.00,,,0.00,meteohub,2013-08-01 13:02:00,
2013-08-01 09:07:00,70.3,63.5,29.99,SSE,158,1.0,5.0,79,0.00,,,0.00,meteohub,2013-08-01 13:07:00,
2013-08-01 09:13:00,70.0,62.8,29.99,SSW,208,0.0,5.0,78,0.00,,,0.00,meteohub,2013-08-01 13:13:00,
2013-08-01 09:18:00,69.6,63.5,29.99,SSE,164,0.0,6.0,81,0.00,,,0.00,meteohub,2013-08-01 13:18:00,
2013-08-01 09:23:00,69.8,63.3,29.99,SSW,192,2.0,6.0,80,0.00,,,0.00,meteohub,2013-08-01 13:23:00,
2013-08-01 09:28:00,70.3,63.9,29.99,SSW,206,3.0,6.0,80,0.00,,,0.00,meteohub,2013-08-01 13:28:00,
2013-08-01 09:33:00,71.2,64.0,29.99,SW,223,4.0,4.0,78,0.00,,,0.00,meteohub,2013-08-01 13:33:00,
2013-08-01 09:38:00,71.4,63.1,29.98,West,263,3.0,8.0,75,0.00,,,0.00,meteohub,2013-08-01 13:38:00,
2013-08-01 09:44:00,72.1,63.3,29.98,SSW,200,5.0,10.0,74,0.00,,,0.00,meteohub,2013-08-01 13:44:00,
2013-08-01 09:49:00,72.7,65.8,29.98,SW,216,3.0,10.0,79,0.00,,,0.00,meteohub,2013-08-01 13:49:00,
2013-08-01 09:55:00,72.9,64.8,29.98,South,184,1.0,10.0,76,0.00,,,0.00,meteohub,2013-08-01 13:55:00,
2013-08-01 10:00:00,72.1,63.0,29.98,SW,232,2.0,6.0,73,0.00,,,0.00,meteohub,2013-08-01 14:00:00,
2013-08-01 10:05:00,71.4,63.1,29.97,SSW,212,2.0,6.0,75,0.00,,,0.00,meteohub,2013-08-01 14:05:00,
2013-08-01 10:10:00,71.2,63.0,29.97,South,181,3.0,6.0,75,0.00,,,0.00,meteohub,2013-08-01 14:10:00,
2013-08-01 10:17:00,71.4,63.9,29.96,SSW,207,3.0,8.0,77,0.00,,,0.00,meteohub,2013-08-01 14:17:00,
2013-08-01 10:22:00,71.4,63.5,29.96,South,178,2.0,8.0,76,0.00,,,0.00,meteohub,2013-08-01 14:22:00,
2013-08-01 10:28:00,71.8,63.9,29.96,SSW,193,5.0,8.0,76,0.00,,,0.00,meteohub,2013-08-01 14:28:00,
2013-08-01 10:33:00,72.0,63.1,29.96,SSE,153,7.0,8.0,74,0.00,,,0.00,meteohub,2013-08-01 14:33:00,
2013-08-01 10:39:00,72.1,64.6,29.96,SSW,205,6.0,10.0,77,0.00,,,0.00,meteohub,2013-08-01 14:39:00,
2013-08-01 10:44:00,72.0,62.4,29.96,ESE,121,4.0,10.0,72,0.00,,,0.00,meteohub,2013-08-01 14:44:00,
2013-08-01 10:49:00,71.8,62.6,29.96,SSE,155,4.0,10.0,73,0.00,,,0.00,meteohub,2013-08-01 14:49:00,
2013-08-01 10:56:00,72.1,63.9,29.95,SSW,192,2.0,10.0,75,0.00,,,0.00,meteohub,2013-08-01 14:56:00,
2013-08-01 11:01:00,72.9,64.8,29.95,SSW,194,3.0,8.0,76,0.00,,,0.00,meteohub,2013-08-01 15:01:00,
2013-08-01 11:07:00,72.9,63.3,29.95,South,173,6.0,8.0,72,0.00,,,0.00,meteohub,2013-08-01 15:07:00,
2013-08-01 11:12:00,72.3,62.4,29.95,SSE,161,5.0,8.0,71,0.00,,,0.00,meteohub,2013-08-01 15:12:00,
2013-08-01 11:17:00,72.1,64.2,29.95,SSW,194,3.0,8.0,76,0.00,,,0.00,meteohub,2013-08-01 15:17:00,
2013-08-01 11:23:00,71.8,63.0,29.95,SW,217,6.0,7.0,74,0.00,,,0.00,meteohub,2013-08-01 15:23:00,
2013-08-01 11:29:00,71.8,62.6,29.95,South,180,6.0,9.0,73,0.00,,,0.00,meteohub,2013-08-01 15:29:00,
2013-08-01 11:34:00,71.2,62.6,29.95,SW,215,4.0,9.0,74,0.00,,,0.00,meteohub,2013-08-01 15:34:00,
2013-08-01 11:39:00,71.4,63.9,29.94,WSW,246,2.0,9.0,77,0.00,,,0.00,meteohub,2013-08-01 15:39:00,
2013-08-01 11:44:00,72.1,63.9,29.94,SSE,153,6.0,9.0,75,0.00,,,0.00,meteohub,2013-08-01 15:44:00,
2013-08-01 11:49:00,72.1,64.6,29.94,SSW,199,2.0,10.0,77,0.00,,,0.00,meteohub,2013-08-01 15:49:00,
2013-08-01 11:54:00,72.1,63.0,29.94,SSW,194,3.0,10.0,73,0.00,,,0.00,meteohub,2013-08-01 15:54:00,
2013-08-01 12:01:00,71.8,63.5,29.94,SSE,155,0.0,7.0,75,0.00,,,0.00,meteohub,2013-08-01 16:01:00,
2013-08-01 12:06:00,71.4,63.1,29.94,South,182,5.0,9.0,75,0.00,,,0.00,meteohub,2013-08-01 16:06:00,
2013-08-01 12:11:00,71.4,63.9,29.94,SW,236,3.0,9.0,77,0.00,,,0.00,meteohub,2013-08-01 16:11:00,
2013-08-01 12:16:00,71.4,63.5,29.94,South,190,0.0,8.0,76,0.00,,,0.00,meteohub,2013-08-01 16:16:00,
2013-08-01 12:21:00,71.6,64.4,29.93,SW,221,1.0,7.0,78,0.00,,,0.00,meteohub,2013-08-01 16:21:00,
2013-08-01 12:26:00,71.4,63.9,29.93,South,173,2.0,6.0,77,0.00,,,0.00,meteohub,2013-08-01 16:26:00,
2013-08-01 12:31:00,71.2,63.7,29.93,South,170,1.0,6.0,77,0.00,,,0.00,meteohub,2013-08-01 16:31:00,
2013-08-01 12:37:00,71.2,64.0,29.93,SE,141,0.0,6.0,78,0.00,,,0.00,meteohub,2013-08-01 16:37:00,
2013-08-01 12:42:00,71.2,64.8,29.93,SW,219,1.0,6.0,80,0.00,,,0.00,meteohub,2013-08-01 16:42:00,
2013-08-01 12:48:00,71.4,64.6,29.92,SSE,161,4.0,6.0,79,0.00,,,0.00,meteohub,2013-08-01 16:48:00,
2013-08-01 12:53:00,71.8,64.6,29.92,SW,217,3.0,6.0,78,0.00,,,0.00,meteohub,2013-08-01 16:53:00,
2013-08-01 12:59:00,71.8,63.9,29.92,SW,222,4.0,6.0,76,0.00,,,0.00,meteohub,2013-08-01 16:59:00,
2013-08-01 13:04:00,71.2,63.7,29.92,South,169,0.0,6.0,77,0.00,,,0.00,meteohub,2013-08-01 17:04:00,
2013-08-01 13:09:00,70.9,63.7,29.92,SSW,212,3.0,7.0,78,0.00,,,0.00,meteohub,2013-08-01 17:09:00,
2013-08-01 13:14:00,70.3,63.5,29.92,SSW,192,1.0,7.0,79,0.00,,,0.00,meteohub,2013-08-01 17:14:00,
2013-08-01 13:19:00,70.0,63.5,29.92,SSE,165,0.0,8.0,80,0.00,,,0.00,meteohub,2013-08-01 17:19:00,
2013-08-01 13:25:00,70.0,63.9,29.92,SSW,206,2.0,8.0,81,0.00,,,0.00,meteohub,2013-08-01 17:25:00,
2013-08-01 13:30:00,69.6,63.9,29.92,SW,231,4.0,7.0,82,0.00,,,0.00,meteohub,2013-08-01 17:30:00,
2013-08-01 13:35:00,69.4,64.0,29.91,SSW,210,1.0,7.0,83,0.00,,,0.00,meteohub,2013-08-01 17:35:00,
2013-08-01 13:40:00,69.1,64.0,29.91,South,180,3.0,5.0,84,0.00,,,0.00,meteohub,2013-08-01 17:40:00,
2013-08-01 13:45:00,68.9,64.2,29.91,South,191,0.0,5.0,85,0.00,,,0.00,meteohub,2013-08-01 17:45:00,
2013-08-01 13:51:00,68.5,64.6,29.91,SW,214,1.0,5.0,87,0.01,,,0.01,meteohub,2013-08-01 17:51:00,
2013-08-01 13:56:00,68.2,64.4,29.91,SW,214,0.0,5.0,88,0.02,,,0.02,meteohub,2013-08-01 17:56:00,
2013-08-01 14:02:00,67.8,64.2,29.91,SW,222,1.0,5.0,88,0.02,,,0.02,meteohub,2013-08-01 18:02:00,
2013-08-01 14:07:00,67.5,64.4,29.91,SW,234,0.0,5.0,90,0.02,,,0.02,meteohub,2013-08-01 18:07:00,
2013-08-01 14:12:00,67.1,64.4,29.91,WNW,299,0.0,5.0,91,0.03,,,0.03,meteohub,2013-08-01 18:12:00,
2013-08-01 14:17:00,66.7,64.4,29.91,WNW,299,0.0,5.0,92,0.05,,,0.05,meteohub,2013-08-01 18:17:00,
2013-08-01 14:22:00,66.6,64.4,29.91,WNW,299,0.0,3.0,93,0.05,,,0.05,meteohub,2013-08-01 18:22:00,
2013-08-01 14:27:00,66.4,64.6,29.91,WNW,299,0.0,2.0,94,0.06,,,0.06,meteohub,2013-08-01 18:27:00,
2013-08-01 14:32:00,66.0,64.2,29.91,WNW,299,0.0,2.0,94,0.06,,,0.06,meteohub,2013-08-01 18:32:00,
2013-08-01 14:37:00,65.8,64.0,29.91,West,279,3.0,3.0,94,0.08,,,0.08,meteohub,2013-08-01 18:37:00,
2013-08-01 14:43:00,65.8,64.0,29.92,West,279,0.0,3.0,94,0.08,,,0.08,meteohub,2013-08-01 18:43:00,
2013-08-01 14:49:00,65.7,63.5,29.92,SSW,209,8.0,8.0,93,0.09,,,0.10,meteohub,2013-08-01 18:49:00,
2013-08-01 14:54:00,65.7,63.5,29.91,SSW,204,1.0,11.0,93,0.09,,,0.10,meteohub,2013-08-01 18:54:00,
2013-08-01 14:59:00,65.5,63.1,29.91,SW,223,0.0,11.0,92,0.09,,,0.11,meteohub,2013-08-01 18:59:00,
2013-08-01 15:05:00,65.5,63.7,29.91,South,178,0.0,11.0,94,0.10,,,0.12,meteohub,2013-08-01 19:05:00,
2013-08-01 15:10:00,65.1,62.8,29.92,NNE,15,7.0,7.0,92,0.10,,,0.12,meteohub,2013-08-01 19:10:00,
2013-08-01 15:16:00,64.9,62.2,29.92,South,187,3.0,10.0,91,0.08,,,0.13,meteohub,2013-08-01 19:16:00,
2013-08-01 15:21:00,64.6,61.5,29.92,WNW,295,1.0,10.0,90,0.07,,,0.13,meteohub,2013-08-01 19:21:00,
2013-08-01 15:26:00,64.4,62.1,29.92,SSW,196,0.0,11.0,92,0.08,,,0.14,meteohub,2013-08-01 19:26:00,
2013-08-01 15:32:00,64.2,61.9,29.91,NW,305,0.0,11.0,92,0.07,,,0.14,meteohub,2013-08-01 19:32:00,
2013-08-01 15:38:00,64.0,62.1,29.91,SW,221,0.0,4.0,93,0.07,,,0.15,meteohub,2013-08-01 19:38:00,
2013-08-01 15:45:00,64.0,62.1,29.91,SW,221,0.0,4.0,93,0.07,,,0.16,meteohub,2013-08-01 19:45:00,
2013-08-01 15:51:00,64.4,62.6,29.91,South,185,2.0,4.0,94,0.06,,,0.17,meteohub,2013-08-01 19:51:00,
2013-08-01 15:57:00,64.4,62.6,29.91,South,186,2.0,5.0,94,0.05,,,0.17,meteohub,2013-08-01 19:57:00,
2013-08-01 16:02:00,64.4,62.6,29.91,SW,219,2.0,5.0,94,0.06,,,0.18,meteohub,2013-08-01 20:02:00,
2013-08-01 16:07:00,64.8,63.3,29.91,SSW,211,0.0,5.0,95,0.05,,,0.18,meteohub,2013-08-01 20:07:00,
2013-08-01 16:12:00,64.8,63.3,29.91,South,180,1.0,4.0,95,0.05,,,0.18,meteohub,2013-08-01 20:12:00,
2013-08-01 16:17:00,64.8,63.0,29.91,South,171,2.0,6.0,94,0.05,,,0.18,meteohub,2013-08-01 20:17:00,
2013-08-01 16:22:00,64.8,63.0,29.91,NNE,19,3.0,6.0,94,0.05,,,0.18,meteohub,2013-08-01 20:22:00,
2013-08-01 16:27:00,64.6,62.4,29.91,SW,234,8.0,15.0,93,0.04,,,0.18,meteohub,2013-08-01 20:27:00,
2013-08-01 16:33:00,64.2,61.5,29.91,South,191,6.0,15.0,91,0.04,,,0.18,meteohub,2013-08-01 20:33:00,
2013-08-01 16:38:00,64.2,61.5,29.91,WSW,249,0.0,15.0,91,0.03,,,0.18,meteohub,2013-08-01 20:38:00,
2013-08-01 16:41:00,64.2,61.5,29.90,SSW,194,7.0,13.0,91,0.02,,,0.18,meteohub,2013-08-01 20:41:00,
2013-08-01 16:46:00,64.2,61.5,29.90,SW,232,4.0,17.0,91,0.02,,,0.18,meteohub,2013-08-01 20:46:00,
2013-08-01 16:52:00,64.2,61.5,29.90,SW,218,4.0,17.0,91,0.01,,,0.18,meteohub,2013-08-01 20:52:00,
2013-08-01 16:56:00,64.2,61.5,29.90,WSW,251,2.0,15.0,91,0.01,,,0.18,meteohub,2013-08-01 20:56:00,
2013-08-01 17:02:00,64.4,61.7,29.90,WSW,253,8.0,12.0,91,0.00,,,0.18,meteohub,2013-08-01 21:02:00,
2013-08-01 17:07:00,64.6,61.9,29.90,NNW,328,2.0,11.0,91,0.00,,,0.18,meteohub,2013-08-01 21:07:00,
2013-08-01 17:12:00,64.6,61.9,29.90,SSW,200,4.0,11.0,91,0.00,,,0.18,meteohub,2013-08-01 21:12:00,
2013-08-01 17:17:00,64.4,62.1,29.90,West,270,0.0,11.0,92,0.00,,,0.18,meteohub,2013-08-01 21:17:00,
2013-08-01 17:22:00,64.2,61.9,29.90,South,170,2.0,9.0,92,0.00,,,0.18,meteohub,2013-08-01 21:22:00,
2013-08-01 17:27:00,64.0,62.1,29.89,SW,225,1.0,9.0,93,0.00,,,0.18,meteohub,2013-08-01 21:27:00,
2013-08-01 17:32:00,64.0,62.1,29.90,WSW,252,0.0,9.0,93,0.00,,,0.18,meteohub,2013-08-01 21:32:00,
2013-08-01 17:37:00,64.0,62.1,29.90,SSW,194,5.0,9.0,93,0.01,,,0.19,meteohub,2013-08-01 21:37:00,
2013-08-01 17:42:00,64.0,62.1,29.90,WSW,242,3.0,9.0,93,0.01,,,0.19,meteohub,2013-08-01 21:42:00,
2013-08-01 17:47:00,64.2,62.2,29.90,SW,235,15.0,15.0,93,0.01,,,0.19,meteohub,2013-08-01 21:47:00,
2013-08-01 17:53:00,64.2,61.9,29.90,South,173,10.0,15.0,92,0.01,,,0.19,meteohub,2013-08-01 21:53:00,
2013-08-01 17:58:00,64.4,62.1,29.89,SW,218,4.0,16.0,92,0.01,,,0.19,meteohub,2013-08-01 21:58:00,
2013-08-01 18:03:00,64.4,62.1,29.89,WNW,298,2.0,16.0,92,0.01,,,0.19,meteohub,2013-08-01 22:03:00,
2013-08-01 18:09:00,64.4,62.1,29.89,NW,304,3.0,15.0,92,0.01,,,0.19,meteohub,2013-08-01 22:09:00,
2013-08-01 18:14:00,64.4,62.1,29.90,West,277,9.0,15.0,92,0.01,,,0.19,meteohub,2013-08-01 22:14:00,
2013-08-01 18:19:00,64.4,62.1,29.90,West,264,0.0,10.0,92,0.01,,,0.19,meteohub,2013-08-01 22:19:00,
2013-08-01 18:25:00,64.4,62.1,29.90,West,277,4.0,10.0,92,0.01,,,0.19,meteohub,2013-08-01 22:25:00,
2013-08-01 18:30:00,64.2,61.9,29.90,West,269,4.0,10.0,92,0.01,,,0.19,meteohub,2013-08-01 22:30:00,
2013-08-01 18:35:00,64.2,61.9,29.90,SW,235,0.0,7.0,92,0.00,,,0.19,meteohub,2013-08-01 22:35:00,
2013-08-01 18:40:00,64.2,61.5,29.90,WSW,242,6.0,8.0,91,0.00,,,0.19,meteohub,2013-08-01 22:40:00,
2013-08-01 18:45:00,64.2,61.5,29.90,WSW,244,4.0,10.0,91,0.00,,,0.19,meteohub,2013-08-01 22:45:00,
2013-08-01 18:50:00,64.4,61.3,29.90,West,266,2.0,10.0,90,0.00,,,0.19,meteohub,2013-08-01 22:50:00,
2013-08-01 18:55:00,64.4,61.3,29.90,SW,223,2.0,10.0,90,0.00,,,0.19,meteohub,2013-08-01 22:55:00,
2013-08-01 19:00:00,64.4,61.3,29.89,West,269,4.0,10.0,90,0.00,,,0.19,meteohub,2013-08-01 23:00:00,
2013-08-01 19:06:00,64.2,61.5,29.89,SW,235,3.0,12.0,91,0.00,,,0.19,meteohub,2013-08-01 23:06:00,
2013-08-01 19:11:00,63.9,61.5,29.89,SSW,207,1.0,12.0,92,0.01,,,0.20,meteohub,2013-08-01 23:11:00,
2013-08-01 19:17:00,63.7,61.3,29.89,SW,228,3.0,12.0,92,0.01,,,0.20,meteohub,2013-08-01 23:17:00,
2013-08-01 19:22:00,63.3,61.0,29.89,South,182,1.0,9.0,92,0.01,,,0.20,meteohub,2013-08-01 23:22:00,
2013-08-01 19:27:00,63.3,61.0,29.89,WSW,257,2.0,9.0,92,0.01,,,0.20,meteohub,2013-08-01 23:27:00,
2013-08-01 19:32:00,63.3,61.0,29.90,South,173,1.0,7.0,92,0.01,,,0.20,meteohub,2013-08-01 23:32:00,
2013-08-01 19:37:00,63.3,61.3,29.89,SE,142,1.0,7.0,93,0.01,,,0.20,meteohub,2013-08-01 23:37:00,
2013-08-01 19:42:00,63.1,61.2,29.89,SSE,168,0.0,7.0,93,0.01,,,0.20,meteohub,2013-08-01 23:42:00,
2013-08-01 19:47:00,63.0,61.0,29.89,SSW,194,1.0,5.0,93,0.01,,,0.20,meteohub,2013-08-01 23:47:00,
2013-08-01 19:52:00,62.8,61.0,29.89,SW,223,0.0,5.0,94,0.01,,,0.20,meteohub,2013-08-01 23:52:00,
2013-08-01 19:57:00,62.4,60.6,29.89,WSW,244,3.0,5.0,94,0.01,,,0.20,meteohub,2013-08-01 23:57:00,
2013-08-01 20:02:00,62.4,60.6,29.89,WSW,242,2.0,5.0,94,0.02,,,0.21,meteohub,2013-08-02 00:02:00,
2013-08-01 20:08:00,62.4,60.6,29.89,West,265,4.0,6.0,94,0.02,,,0.00,meteohub,2013-08-02 00:08:00,
2013-08-01 20:13:00,62.6,60.8,29.90,SW,215,0.0,6.0,94,0.01,,,0.00,meteohub,2013-08-02 00:13:00,
2013-08-01 20:19:00,62.8,61.0,29.89,SW,224,0.0,6.0,94,0.01,,,0.00,meteohub,2013-08-02 00:19:00,
2013-08-01 20:24:00,62.8,61.0,29.90,SW,217,1.0,5.0,94,0.02,,,0.01,meteohub,2013-08-02 00:24:00,
2013-08-01 20:29:00,62.8,61.0,29.90,WSW,249,4.0,5.0,94,0.02,,,0.01,meteohub,2013-08-02 00:29:00,
2013-08-01 20:34:00,62.8,61.0,29.89,West,281,0.0,5.0,94,0.02,,,0.01,meteohub,2013-08-02 00:34:00,
2013-08-01 20:39:00,62.8,61.0,29.89,SW,229,2.0,6.0,94,0.02,,,0.01,meteohub,2013-08-02 00:39:00,
2013-08-01 20:44:00,62.8,61.0,29.90,SW,234,0.0,6.0,94,0.02,,,0.01,meteohub,2013-08-02 00:44:00,
2013-08-01 20:50:00,63.0,61.2,29.90,SSW,208,6.0,6.0,94,0.02,,,0.01,meteohub,2013-08-02 00:50:00,
2013-08-01 20:55:00,63.0,61.2,29.90,SSW,209,2.0,8.0,94,0.02,,,0.01,meteohub,2013-08-02 00:55:00,
2013-08-01 21:00:00,63.0,61.2,29.90,SSW,198,0.0,9.0,94,0.02,,,0.01,meteohub,2013-08-02 01:00:00,
2013-08-01 21:05:00,63.0,61.2,29.90,SSW,202,5.0,7.0,94,0.01,,,0.01,meteohub,2013-08-02 01:05:00,
2013-08-01 21:11:00,63.0,61.2,29.90,SW,216,1.0,7.0,94,0.01,,,0.01,meteohub,2013-08-02 01:11:00,
2013-08-01 21:16:00,63.0,61.2,29.91,SW,221,1.0,7.0,94,0.01,,,0.01,meteohub,2013-08-02 01:16:00,
2013-08-01 21:22:00,63.0,61.2,29.91,SW,221,0.0,7.0,94,0.00,,,0.01,meteohub,2013-08-02 01:22:00,
2013-08-01 21:27:00,63.0,61.2,29.91,SW,221,0.0,6.0,94,0.00,,,0.01,meteohub,2013-08-02 01:27:00,
2013-08-01 21:32:00,63.0,61.5,29.91,SW,221,0.0,3.0,95,0.00,,,0.01,meteohub,2013-08-02 01:32:00,
2013-08-01 21:37:00,62.8,61.3,29.91,SW,221,0.0,2.0,95,0.00,,,0.01,meteohub,2013-08-02 01:37:00,
2013-08-01 21:43:00,62.8,61.3,29.91,SW,221,0.0,2.0,95,0.00,,,0.01,meteohub,2013-08-02 01:43:00,
2013-08-01 21:48:00,62.6,61.2,29.91,SW,221,0.0,2.0,95,0.00,,,0.01,meteohub,2013-08-02 01:48:00,
2013-08-01 21:53:00,62.4,61.3,29.90,SW,221,0.0,2.0,96,0.00,,,0.01,meteohub,2013-08-02 01:53:00,
2013-08-01 21:58:00,62.4,61.3,29.90,East,100,0.0,1.0,96,0.00,,,0.01,meteohub,2013-08-02 01:58:00,
2013-08-01 22:03:00,62.2,61.2,29.90,East,100,0.0,3.0,96,0.00,,,0.01,meteohub,2013-08-02 02:03:00,
2013-08-01 22:08:00,62.2,61.2,29.90,East,100,0.0,3.0,96,0.00,,,0.01,meteohub,2013-08-02 02:08:00,
2013-08-01 22:14:00,62.2,61.2,29.90,East,100,0.0,2.0,96,0.00,,,0.01,meteohub,2013-08-02 02:14:00,
2013-08-01 22:19:00,62.2,61.2,29.90,East,100,0.0,2.0,96,0.00,,,0.01,meteohub,2013-08-02 02:19:00,
2013-08-01 22:24:00,62.2,61.2,29.90,SSE,162,1.0,2.0,96,0.00,,,0.01,meteohub,2013-08-02 02:24:00,
2013-08-01 22:29:00,62.2,61.2,29.89,West,264,0.0,3.0,96,0.00,,,0.01,meteohub,2013-08-02 02:29:00,
2013-08-01 22:34:00,62.4,61.3,29.89,South,176,1.0,4.0,96,0.00,,,0.01,meteohub,2013-08-02 02:34:00,
2013-08-01 22:40:00,62.4,61.3,29.89,SSW,194,0.0,4.0,96,0.00,,,0.01,meteohub,2013-08-02 02:40:00,
2013-08-01 22:45:00,62.4,61.3,29.89,SSW,194,0.0,3.0,96,0.00,,,0.01,meteohub,2013-08-02 02:45:00,
2013-08-01 22:51:00,62.4,61.3,29.89,SSW,194,0.0,3.0,96,0.00,,,0.01,meteohub,2013-08-02 02:51:00,
2013-08-01 22:56:00,62.4,61.3,29.89,SSW,194,0.0,3.0,96,0.00,,,0.01,meteohub,2013-08-02 02:56:00,
2013-08-01 23:01:00,62.4,61.3,29.89,WSW,244,3.0,3.0,96,0.00,,,0.01,meteohub,2013-08-02 03:01:00,
2013-08-01 23:07:00,62.6,61.5,29.89,WSW,244,0.0,3.0,96,0.00,,,0.01,meteohub,2013-08-02 03:07:00,
2013-08-01 23:12:00,62.6,61.5,29.89,WSW,244,0.0,3.0,96,0.00,,,0.01,meteohub,2013-08-02 03:12:00,
2013-08-01 23:17:00,62.6,61.5,29.89,WSW,244,0.0,3.0,96,0.00,,,0.01,meteohub,2013-08-02 03:17:00,
2013-08-01 23:22:00,62.6,61.5,29.89,WSW,244,0.0,1.0,96,0.00,,,0.01,meteohub,2013-08-02 03:22:00,
2013-08-01 23:27:00,62.6,61.5,29.89,WSW,244,0.0,1.0,96,0.00,,,0.01,meteohub,2013-08-02 03:27:00,
2013-08-01 23:33:00,62.6,61.5,29.89,WSW,244,0.0,1.0,96,0.00,,,0.01,meteohub,2013-08-02 03:33:00,
2013-08-01 23:38:00,62.8,61.7,29.89,WSW,244,0.0,1.0,96,0.00,,,0.01,meteohub,2013-08-02 03:38:00,
2013-08-01 23:43:00,62.6,61.5,29.89,WSW,244,0.0,1.0,96,0.00,,,0.01,meteohub,2013-08-02 03:43:00,
2013-08-01 23:50:00,62.4,61.3,29.89,WSW,243,0.0,1.0,96,0.00,,,0.01,meteohub,2013-08-02 03:50:00,
2013-08-01 23:55:00,62.4,61.3,29.88,ESE,120,0.0,2.0,96,0.00,,,0.01,meteohub,2013-08-02 03:55:00,